createdAt,value
2022-10-02T00:01:28.375Z,1.65
2022-10-02T00:03:59.374Z,1.67
2022-10-02T00:06:39.755Z,1.73
2022-10-02T00:09:11.289Z,1.33
2022-10-02T00:11:44.600Z,1.50
2022-10-02T00:14:16.577Z,2.10
2022-10-02T00:16:48.513Z,2.65
2022-10-02T00:19:20.151Z,1.77
2022-10-02T00:22:17.847Z,2.22
2022-10-02T00:24:54.252Z,2.05
2022-10-02T00:27:41.362Z,2.97
2022-10-02T00:30:12.558Z,2.40
2022-10-02T00:32:50.310Z,2.72
2022-10-02T00:35:49.738Z,2.10
2022-10-02T00:38:29.262Z,1.60
2022-10-02T00:41:17.356Z,2.67
2022-10-02T00:43:58.514Z,1.90
2022-10-02T00:46:48.280Z,1.83
2022-10-02T00:49:38.442Z,1.80
2022-10-02T00:52:17.958Z,2.10
2022-10-02T00:55:05.150Z,2.03
2022-10-02T00:57:44.219Z,1.73
2022-10-02T01:00:15.220Z,2.50
2022-10-02T01:03:01.756Z,1.92
2022-10-02T01:05:30.158Z,2.28
2022-10-02T01:08:00.763Z,2.25
2022-10-02T01:10:29.516Z,2.50
2022-10-02T01:12:58.537Z,1.85
2022-10-02T01:15:31.556Z,2.30
2022-10-02T01:17:59.759Z,2.25
2022-10-02T01:20:34.549Z,3.65
2022-10-02T01:23:16.156Z,2.03
2022-10-02T01:25:46.169Z,3.80
2022-10-02T01:28:14.250Z,2.20
2022-10-02T01:30:45.656Z,2.25
2022-10-02T01:35:42.493Z,2.20
2022-10-02T01:38:13.670Z,1.88
2022-10-02T01:40:42.595Z,2.05
2022-10-02T01:43:15.442Z,2.60
2022-10-02T01:46:09.605Z,1.88
2022-10-02T01:48:43.597Z,2.30
2022-10-02T01:51:26.902Z,2.03
2022-10-02T01:54:06.006Z,2.20
2022-10-02T01:56:45.319Z,1.70
2022-10-02T01:59:24.613Z,2.38
2022-10-02T02:02:02.626Z,4.13
2022-10-02T02:04:35.939Z,1.60
2022-10-02T02:07:08.668Z,1.80
2022-10-02T02:09:41.148Z,2.22
2022-10-02T02:12:15.261Z,3.13
2022-10-02T02:14:48.852Z,1.67
2022-10-02T02:17:24.025Z,1.85
2022-10-02T02:19:57.822Z,1.77
2022-10-02T02:22:29.645Z,1.88
2022-10-02T02:25:02.833Z,1.80
2022-10-02T02:27:36.649Z,2.40
2022-10-02T02:30:09.461Z,2.17
2022-10-02T02:32:42.418Z,1.95
2022-10-02T02:35:15.431Z,1.73
2022-10-02T02:37:44.969Z,2.42
2022-10-02T02:40:16.131Z,2.92
2022-10-02T02:42:50.597Z,1.77
2022-10-02T02:45:22.590Z,3.30
2022-10-02T02:47:53.731Z,1.90
2022-10-02T02:50:25.170Z,2.67
2022-10-02T02:55:26.240Z,2.67
2022-10-02T02:58:00.247Z,2.55
2022-10-02T03:00:29.535Z,2.65
2022-10-02T03:02:58.458Z,2.53
2022-10-02T03:05:27.688Z,1.90
2022-10-02T03:07:58.494Z,2.25
2022-10-02T03:10:35.902Z,1.92
2022-10-02T03:13:17.496Z,2.70
2022-10-02T03:15:56.160Z,2.08
2022-10-02T03:18:49.086Z,2.85
2022-10-02T03:21:19.814Z,1.90
2022-10-02T03:23:58.976Z,2.55
2022-10-02T03:26:34.460Z,2.00
2022-10-02T03:29:06.365Z,2.58
2022-10-02T03:31:37.216Z,2.25
2022-10-02T03:34:06.122Z,2.35
2022-10-02T03:36:35.114Z,1.90
2022-10-02T03:39:24.105Z,1.85
2022-10-02T03:41:52.240Z,2.15
2022-10-02T03:44:20.087Z,1.85
2022-10-02T03:46:49.334Z,2.03
2022-10-02T03:49:17.152Z,2.33
2022-10-02T03:51:45.022Z,2.13
2022-10-02T03:54:18.464Z,2.00
2022-10-02T03:56:54.111Z,2.67
2022-10-02T03:59:34.451Z,2.10
2022-10-02T04:02:07.830Z,2.17
2022-10-02T04:04:45.286Z,2.47
2022-10-02T04:07:18.938Z,1.70
2022-10-02T04:09:52.835Z,1.73
2022-10-02T04:12:26.737Z,1.80
2022-10-02T04:14:58.461Z,2.05
2022-10-02T04:17:36.191Z,2.08
2022-10-02T04:20:12.260Z,2.28
2022-10-02T04:22:47.605Z,3.15
2022-10-02T04:25:18.654Z,2.33
2022-10-02T09:22:51.884Z,5.32
2022-10-02T09:25:37.311Z,5.75
2022-10-02T09:28:45.556Z,4.70
2022-10-02T09:31:40.200Z,5.90
2022-10-02T09:34:31.453Z,5.82
2022-10-02T09:37:33.849Z,4.53
2022-10-02T09:40:46.753Z,4.70
2022-10-02T09:44:01.445Z,5.47
2022-10-02T09:46:58.280Z,5.65
2022-10-02T09:50:06.668Z,4.25
2022-10-02T09:53:03.241Z,5.38
2022-10-02T09:56:22.468Z,4.38
2022-10-02T09:59:28.043Z,3.88
2022-10-02T10:02:40.088Z,4.88
2022-10-02T10:06:07.992Z,4.35
2022-10-02T10:08:56.297Z,5.43
2022-10-02T10:11:59.711Z,3.80
2022-10-02T10:15:10.081Z,4.32
2022-10-02T10:18:11.521Z,4.15
2022-10-02T10:21:07.473Z,3.33
2022-10-02T10:24:02.567Z,3.47
2022-10-02T10:26:53.620Z,3.83
2022-10-02T10:30:01.109Z,3.47
2022-10-02T10:33:01.589Z,3.30
2022-10-02T10:35:49.864Z,3.40
2022-10-02T10:38:38.391Z,4.63
2022-10-02T10:41:32.875Z,3.67
2022-10-02T10:44:35.415Z,3.38
2022-10-02T10:47:29.878Z,3.38
2022-10-02T10:50:27.100Z,3.13
2022-10-02T10:53:12.677Z,4.07
2022-10-02T10:56:12.945Z,3.17
2022-10-02T10:58:59.247Z,2.70
2022-10-02T11:01:39.205Z,2.65
2022-10-02T11:04:42.203Z,3.00
2022-10-02T11:07:35.100Z,3.13
2022-10-02T11:10:20.096Z,2.88
2022-10-02T11:13:03.945Z,3.40
2022-10-02T11:15:54.762Z,3.33
2022-10-02T11:18:35.534Z,2.83
2022-10-02T11:21:31.597Z,3.25
2022-10-02T11:24:33.827Z,3.15
2022-10-02T11:27:16.783Z,3.20
2022-10-02T11:30:05.143Z,3.60
2022-10-02T11:33:13.787Z,3.10
2022-10-02T11:35:56.235Z,2.80
2022-10-02T11:38:55.013Z,2.85
2022-10-02T11:41:46.713Z,3.20
2022-10-02T11:44:24.670Z,3.88
2022-10-02T11:47:28.732Z,3.42
2022-10-02T11:50:25.893Z,3.10
2022-10-02T11:53:21.294Z,2.95
2022-10-02T11:56:05.781Z,2.50
2022-10-02T11:58:45.432Z,2.97
2022-10-02T12:01:32.115Z,3.00
2022-10-02T12:04:26.732Z,4.70
2022-10-02T12:07:14.931Z,3.60
2022-10-02T12:09:55.317Z,2.80
2022-10-02T12:12:35.509Z,3.17
2022-10-02T12:15:11.052Z,2.80
2022-10-02T12:18:07.915Z,3.28
2022-10-02T12:21:08.116Z,3.55
2022-10-02T12:24:06.707Z,3.63
2022-10-02T12:27:03.791Z,3.75
2022-10-02T12:30:07.072Z,3.35
2022-10-02T12:32:49.758Z,2.80
2022-10-02T12:35:31.362Z,3.15
2022-10-02T12:38:10.613Z,3.13
2022-10-02T12:40:46.274Z,3.53
2022-10-02T12:43:42.679Z,3.15
2022-10-02T12:46:57.390Z,2.90
2022-10-02T12:49:34.198Z,3.05
2022-10-02T12:52:39.179Z,3.38
2022-10-02T12:55:54.850Z,3.10
2022-10-02T12:58:29.604Z,2.90
2022-10-02T13:01:23.474Z,2.55
2022-10-02T13:04:34.899Z,2.13
2022-10-02T13:07:32.320Z,2.58
2022-10-02T13:10:05.467Z,2.85
2022-10-02T13:12:50.883Z,3.88
2022-10-02T13:15:27.774Z,2.15
2022-10-02T13:18:04.662Z,2.97
2022-10-02T13:20:39.850Z,3.05
2022-10-02T13:23:22.626Z,2.72
2022-10-02T13:26:00.909Z,3.33
2022-10-02T13:28:43.997Z,3.95
2022-10-02T13:31:23.163Z,2.97
2022-10-02T13:34:18.506Z,2.25
2022-10-02T13:37:00.281Z,2.25
2022-10-02T13:39:41.360Z,3.03
2022-10-02T13:42:28.903Z,2.97
2022-10-02T13:45:03.534Z,2.55
2022-10-02T13:47:41.723Z,2.85
2022-10-02T13:50:21.649Z,2.60
2022-10-02T13:53:05.816Z,2.80
2022-10-02T13:55:36.875Z,2.25
2022-10-02T13:58:31.845Z,2.22
2022-10-02T14:01:19.777Z,2.75
2022-10-02T14:04:15.801Z,2.67
2022-10-02T14:06:48.997Z,2.53
2022-10-02T14:09:33.242Z,2.38
2022-10-02T14:12:16.938Z,3.35
2022-10-02T14:15:03.997Z,2.95
2022-10-02T14:17:40.333Z,2.47
2022-10-02T14:20:35.442Z,2.15
2022-10-02T14:23:28.728Z,2.00
2022-10-02T14:26:09.128Z,2.13
2022-10-02T14:29:01.374Z,2.22
2022-10-02T14:31:53.830Z,2.10
2022-10-02T14:35:01.823Z,2.60
2022-10-02T14:37:56.423Z,2.00
2022-10-02T14:40:31.322Z,2.53
2022-10-02T14:43:27.985Z,2.33
2022-10-02T14:46:04.748Z,2.28
2022-10-02T14:49:05.820Z,2.58
2022-10-02T14:52:07.988Z,2.08
2022-10-02T14:55:15.271Z,1.60
2022-10-02T14:58:02.756Z,1.90
2022-10-02T15:00:40.814Z,1.63
2022-10-02T15:03:35.314Z,1.67
2022-10-02T15:06:27.988Z,1.73
2022-10-02T15:09:00.180Z,1.75
2022-10-02T15:11:49.068Z,2.03
2022-10-02T15:14:22.745Z,1.75
2022-10-02T15:17:18.241Z,1.60
2022-10-02T15:19:50.241Z,1.55
2022-10-02T15:22:22.512Z,1.73
2022-10-02T15:24:56.400Z,2.00
2022-10-02T15:27:26.563Z,1.98
2022-10-02T15:30:13.072Z,1.75
2022-10-02T15:33:00.493Z,1.67
2022-10-02T15:35:46.134Z,1.33
2022-10-02T15:38:27.520Z,1.73
2022-10-02T15:43:51.467Z,1.42
2022-10-02T15:46:28.938Z,1.83
2022-10-02T15:49:10.123Z,1.80
2022-10-02T15:52:00.921Z,1.67
2022-10-02T15:54:53.535Z,1.80
2022-10-02T15:57:54.726Z,1.45
2022-10-02T16:00:25.827Z,2.67
2022-10-02T16:03:06.073Z,1.65
2022-10-02T16:05:44.664Z,1.92
2022-10-02T16:08:51.199Z,1.40
2022-10-02T16:11:51.739Z,1.50
2022-10-02T16:14:28.925Z,1.27
2022-10-02T16:17:09.956Z,2.10
2022-10-02T16:19:50.198Z,1.50
2022-10-02T16:22:30.630Z,1.60
2022-10-02T16:25:23.880Z,1.77
2022-10-02T16:27:57.840Z,1.90
2022-10-02T16:30:27.420Z,1.90
2022-10-02T16:33:10.274Z,1.80
2022-10-02T16:36:04.582Z,1.58
2022-10-02T16:38:47.636Z,1.40
2022-10-02T16:41:29.590Z,2.00
2022-10-02T16:44:09.624Z,1.83
2022-10-02T16:46:44.167Z,1.48
2022-10-02T16:49:23.635Z,1.60
2022-10-02T16:52:02.919Z,1.65
2022-10-02T16:54:39.629Z,1.98
2022-10-02T16:57:22.194Z,1.60
2022-10-02T16:59:55.199Z,1.85
2022-10-02T17:02:29.837Z,1.60
2022-10-02T17:05:03.212Z,1.67
2022-10-02T17:07:42.405Z,1.65
2022-10-02T17:10:23.500Z,1.85
2022-10-02T17:12:58.924Z,1.85
2022-10-02T17:15:34.091Z,1.70
2022-10-02T17:18:13.875Z,1.50
2022-10-02T17:20:45.075Z,1.77
2022-10-02T17:23:23.643Z,1.70
2022-10-02T17:25:58.263Z,1.58
2022-10-02T17:28:32.329Z,1.55
2022-10-02T17:31:24.145Z,2.30
2022-10-02T17:33:55.765Z,1.55
2022-10-02T17:36:34.893Z,2.28
2022-10-02T17:39:22.807Z,1.65
2022-10-02T17:41:56.471Z,1.90
2022-10-02T17:44:35.919Z,1.63
2022-10-02T17:47:37.417Z,1.60
2022-10-02T17:50:25.909Z,1.77
2022-10-02T17:53:21.342Z,1.67
2022-10-02T17:56:30.423Z,1.75
2022-10-02T17:59:20.738Z,1.63
2022-10-02T18:01:57.964Z,2.20
2022-10-02T18:04:36.216Z,1.70
2022-10-02T18:07:18.535Z,2.33
2022-10-02T18:09:57.753Z,1.70
2022-10-02T18:12:52.366Z,1.58
2022-10-02T18:15:32.042Z,1.90
2022-10-02T18:18:19.339Z,2.30
2022-10-02T18:20:57.355Z,2.08
2022-10-02T18:23:58.151Z,1.55
2022-10-02T18:26:34.852Z,1.85
2022-10-02T18:29:17.254Z,1.85
2022-10-02T18:31:58.335Z,1.67
2022-10-02T18:34:43.792Z,1.65
2022-10-02T18:37:39.271Z,1.80
2022-10-02T18:40:22.148Z,2.20
2022-10-02T18:43:03.676Z,2.08
2022-10-02T18:48:25.454Z,2.70
2022-10-02T18:51:11.621Z,1.98
2022-10-02T18:54:07.332Z,2.13
2022-10-02T18:56:55.511Z,2.30
2022-10-02T18:59:39.066Z,1.88
2022-10-02T19:02:19.176Z,2.00
2022-10-02T19:05:13.474Z,1.95
2022-10-02T19:07:45.785Z,1.88
2022-10-02T19:10:26.281Z,1.90
2022-10-02T19:12:57.493Z,2.28
2022-10-02T19:15:28.568Z,2.00
2022-10-02T19:18:03.454Z,2.28
2022-10-02T19:20:44.109Z,3.60
2022-10-02T19:23:24.126Z,2.50
2022-10-02T19:25:54.653Z,2.47
2022-10-02T19:28:26.088Z,2.40
2022-10-02T19:30:57.150Z,2.35
2022-10-02T19:33:42.153Z,2.22
2022-10-02T19:36:18.118Z,2.75
2022-10-02T19:38:52.269Z,2.63
2022-10-02T19:41:22.705Z,2.50
2022-10-02T19:43:56.992Z,2.97
2022-10-02T19:46:48.976Z,2.83
2022-10-02T19:49:22.617Z,3.35
2022-10-02T19:51:50.878Z,3.08
2022-10-02T19:54:22.959Z,3.03
2022-10-02T19:56:54.598Z,3.22
2022-10-02T19:59:28.467Z,3.15
2022-10-02T20:01:59.746Z,2.90
2022-10-02T20:04:32.333Z,3.20
2022-10-02T20:07:02.075Z,3.22
2022-10-02T20:09:37.073Z,2.92
2022-10-02T20:12:11.306Z,2.63
2022-10-02T20:14:43.337Z,3.13
2022-10-02T20:17:12.671Z,3.20
2022-10-02T20:19:48.231Z,2.65
2022-10-02T20:22:25.159Z,3.08
2022-10-02T20:24:58.233Z,2.90
2022-10-02T20:27:39.831Z,2.60
2022-10-02T20:30:14.515Z,2.65
2022-10-02T20:32:48.957Z,3.10
2022-10-02T20:35:24.030Z,2.63
2022-10-02T20:37:55.209Z,2.67
2022-10-02T20:40:26.532Z,2.88
2022-10-02T20:48:55.983Z,3.58
2022-10-02T20:51:53.423Z,3.55
2022-10-02T20:54:43.427Z,3.20
2022-10-02T20:58:02.038Z,3.30
2022-10-02T21:00:44.079Z,3.35
2022-10-02T21:03:41.374Z,2.85
2022-10-02T21:06:51.063Z,2.97
2022-10-02T21:10:00.688Z,2.90
2022-10-02T21:13:14.849Z,2.60
2022-10-02T21:15:55.179Z,2.85
2022-10-02T21:18:47.913Z,3.17
2022-10-02T21:21:55.803Z,3.72
2022-10-02T21:25:04.892Z,3.20
2022-10-02T21:27:59.365Z,3.65
2022-10-02T21:30:35.346Z,3.15
2022-10-02T21:33:09.838Z,3.28
2022-10-02T21:35:56.138Z,3.38
2022-10-02T21:38:57.439Z,3.30
2022-10-02T21:41:53.919Z,3.80
2022-10-02T21:45:00.328Z,2.88
2022-10-02T21:48:04.587Z,3.40
2022-10-02T21:51:02.144Z,2.72
2022-10-02T21:54:09.185Z,8.38
2022-10-02T21:57:03.036Z,4.25
2022-10-02T22:00:14.207Z,3.28
2022-10-02T22:03:11.530Z,3.55
2022-10-02T22:06:14.088Z,3.95
2022-10-02T22:08:56.382Z,3.17
2022-10-02T22:11:34.278Z,3.35
2022-10-02T22:14:09.613Z,3.72
2022-10-02T22:16:47.313Z,3.47
2022-10-02T22:19:31.838Z,2.70
2022-10-02T22:22:13.158Z,2.75
2022-10-02T22:25:03.110Z,2.80
2022-10-02T22:28:08.118Z,2.85
2022-10-02T22:30:48.395Z,2.80
2022-10-02T22:33:37.686Z,3.33
2022-10-02T22:36:25.861Z,2.90
2022-10-02T22:39:01.177Z,4.72
2022-10-02T22:41:34.142Z,3.95
2022-10-02T22:44:06.223Z,4.25
2022-10-02T22:46:46.864Z,3.35
2022-10-02T22:49:24.564Z,3.00
2022-10-02T22:52:00.462Z,3.50
2022-10-02T22:54:35.810Z,3.85
2022-10-02T22:57:12.984Z,4.53
2022-10-02T22:59:47.458Z,3.25
2022-10-02T23:02:23.201Z,4.10
2022-10-02T23:04:57.632Z,4.50
2022-10-02T23:07:29.701Z,4.15
2022-10-02T23:10:01.713Z,3.30
2022-10-02T23:12:38.727Z,3.72
2022-10-02T23:15:32.020Z,3.40
2022-10-02T23:18:05.888Z,3.15
2022-10-02T23:20:37.533Z,3.67
2022-10-02T23:23:14.738Z,3.20
2022-10-02T23:25:49.160Z,3.55
2022-10-02T23:28:22.601Z,3.45
2022-10-02T23:31:01.183Z,3.00
2022-10-02T23:33:39.844Z,2.90
2022-10-02T23:36:20.072Z,4.30
2022-10-02T23:38:54.066Z,3.13
2022-10-02T23:41:40.055Z,3.30
2022-10-02T23:44:21.529Z,3.45
2022-10-02T23:47:10.990Z,3.15
2022-10-02T23:49:43.978Z,3.58
2022-10-02T23:52:31.190Z,2.85
2022-10-02T23:55:15.104Z,3.38
2022-10-02T23:57:58.308Z,4.07
